Disclaimer

Please do not use the information listed here in-flight or in-navigation, as they are not provided to us by the airports but are provided by volunteers, so they might be outdated.

Search


Regions


Airport information page

Radio informations:
YURIMAGUAS RDO - 118.1 MHz

Airport informations:
Latitude: 05° 53' 37.58" S
Longitude: 076° 07' 05.56" W
Elevation: 587 feet - 179 meters
Operating hours: Remarks
Operating agency: Civil government, landing fees and diplomatic clearance may be required
Timezone: UTC-5
Fuel: N/A

Runway information:
09/27 - 5912 x 98 feet< - >1802 x 30 meters

Recent METARs:
SPMS 202000Z VRB02KT 8000 VCSH FEW015TCU SCT100 30/24 Q1009 RMK SH W/SE BIRD HAZARD RWY09/27 PP000
SPMS 202100Z 12004KT 8000 VCSH FEW015TCU SCT100 30/23 Q1008 RMK SH N/W BIRD HAZARD RWY09/27 PP000
SPMS 202100Z 12004KT 8000 VCSH FEW015TCU SCT100 30/23 Q1008 RMK SH N/W BIRD HAZARD RWY09/27 PP000

Airport on the map: